createdAt,value
2019-04-28T00:03:03.873Z,6.40
2019-04-28T00:09:05.927Z,7.17
2019-04-28T00:15:08.404Z,8.60
2019-04-28T00:21:18.011Z,9.15
2019-04-28T00:27:21.509Z,8.65
2019-04-28T00:33:23.117Z,8.98
2019-04-28T00:39:24.721Z,10.00
2019-04-28T00:45:26.270Z,9.05
2019-04-28T00:51:31.354Z,10.00
2019-04-28T00:57:34.220Z,10.40
2019-04-28T01:03:35.798Z,10.38
2019-04-28T01:09:37.272Z,10.00
2019-04-28T01:15:40.648Z,10.18
2019-04-28T01:22:00.688Z,10.50
2019-04-28T01:28:02.490Z,10.35
2019-04-28T01:34:15.042Z,10.00
2019-04-28T01:40:16.705Z,9.85
2019-04-28T01:46:19.808Z,10.58
2019-04-28T01:52:21.525Z,9.38
2019-04-28T01:58:22.993Z,10.68
2019-04-28T02:04:25.794Z,10.93
2019-04-28T02:10:30.287Z,12.03
2019-04-28T02:16:31.733Z,12.00
2019-04-28T02:22:35.225Z,11.80
2019-04-28T02:28:36.706Z,12.03
2019-04-28T02:34:40.725Z,12.50
2019-04-28T02:40:41.479Z,13.53
2019-04-28T02:46:43.444Z,13.38
2019-04-28T02:53:03.146Z,12.23
2019-04-28T02:59:05.144Z,12.33
2019-04-28T03:05:08.193Z,12.30
2019-04-28T03:11:11.150Z,10.65
2019-04-28T03:17:12.742Z,12.37
2019-04-28T03:23:14.459Z,12.43
2019-04-28T03:29:35.968Z,12.75
2019-04-28T03:35:37.469Z,12.70
2019-04-28T03:41:40.589Z,13.22
2019-04-28T03:47:42.237Z,11.95
2019-04-28T03:53:43.669Z,12.80
2019-04-28T03:59:45.114Z,11.38
2019-04-28T04:05:46.730Z,11.03
2019-04-28T04:12:06.244Z,11.22
2019-04-28T04:18:12.544Z,12.35
2019-04-28T04:24:13.988Z,13.22
2019-04-28T04:30:15.423Z,12.60
2019-04-28T04:36:16.972Z,12.37
2019-04-28T04:42:20.422Z,12.60
2019-04-28T04:48:21.813Z,13.30
2019-04-28T04:54:23.194Z,11.75
2019-04-28T05:00:30.642Z,12.10
2019-04-28T05:06:41.541Z,10.70
2019-04-28T05:12:43.235Z,12.30
2019-04-28T05:18:44.746Z,11.40
2019-04-28T05:24:51.177Z,12.75
2019-04-28T05:30:51.345Z,10.23
2019-04-28T05:36:52.828Z,12.18
2019-04-28T05:43:00.789Z,10.68
2019-04-28T05:49:07.200Z,12.10
2019-04-28T05:55:20.430Z,10.10
2019-04-28T06:01:30.482Z,10.28
2019-04-28T06:07:36.693Z,10.68
2019-04-28T06:13:40.072Z,11.28
2019-04-28T06:19:41.699Z,10.53
2019-04-28T06:25:43.218Z,10.88
2019-04-28T06:31:44.610Z,10.85
2019-04-28T06:37:46.106Z,11.78
2019-04-28T06:43:48.581Z,12.58
2019-04-28T06:49:50.274Z,10.85
2019-04-28T06:55:51.752Z,11.83
2019-04-28T07:01:53.297Z,10.98
2019-04-28T07:07:54.782Z,9.88
2019-04-28T07:13:56.321Z,10.55
2019-04-28T07:19:59.693Z,11.08
2019-04-28T07:26:01.277Z,11.45
2019-04-28T07:32:03.434Z,10.68
2019-04-28T07:38:05.110Z,10.88
2019-04-28T07:44:06.791Z,10.85
2019-04-28T07:50:08.569Z,11.93
2019-04-28T07:56:10.407Z,11.63
2019-04-28T08:02:11.959Z,11.03
2019-04-28T08:08:13.625Z,11.28
2019-04-28T08:14:15.229Z,11.10
2019-04-28T08:20:16.884Z,10.30
2019-04-28T08:26:18.470Z,14.70
2019-04-28T08:32:24.601Z,14.83
2019-04-28T08:38:26.120Z,13.60
2019-04-28T08:44:27.651Z,13.62
2019-04-28T08:50:29.134Z,12.55
2019-04-28T08:56:30.616Z,10.98
2019-04-28T09:02:32.058Z,11.97
2019-04-28T09:08:33.737Z,11.00
2019-04-28T09:14:35.284Z,11.00
2019-04-28T09:20:37.013Z,11.68
2019-04-28T09:26:38.417Z,10.63
2019-04-28T09:32:39.957Z,11.68
2019-04-28T09:38:41.469Z,11.75
2019-04-28T09:44:43.038Z,12.70
2019-04-28T09:50:44.496Z,11.12
2019-04-28T09:56:56.048Z,8.65
2019-04-28T10:02:49.591Z,11.28
2019-04-28T10:08:51.331Z,11.18
2019-04-28T10:14:52.803Z,12.70
2019-04-28T10:20:54.513Z,11.12
2019-04-28T10:26:57.000Z,10.10
2019-04-28T10:32:58.716Z,7.40
2019-04-28T10:39:18.733Z,3.02
2019-04-28T10:45:22.126Z,3.10
2019-04-28T10:51:23.683Z,2.98
2019-04-28T10:57:25.134Z,2.10
2019-04-28T11:03:26.583Z,3.12
2019-04-28T11:10:06.296Z,2.12
2019-04-28T11:15:44.008Z,2.35
2019-04-28T11:21:47.598Z,3.00
2019-04-28T11:27:49.256Z,3.22
2019-04-28T11:34:06.265Z,3.30
2019-04-28T11:40:08.085Z,4.40
2019-04-28T11:46:15.454Z,5.25
2019-04-28T11:52:16.920Z,5.28
2019-04-28T11:58:19.384Z,4.47
2019-04-28T12:04:22.967Z,3.80
2019-04-28T12:10:28.350Z,4.47
2019-04-28T12:16:46.708Z,4.60
2019-04-28T12:22:53.746Z,5.67
2019-04-28T12:28:56.482Z,4.45
2019-04-28T12:35:00.440Z,5.60
2019-04-28T12:41:02.299Z,4.42
2019-04-28T12:47:04.031Z,4.50
2019-04-28T12:53:05.712Z,3.20
2019-04-28T12:59:12.049Z,3.30
2019-04-28T13:05:15.499Z,2.70
2019-04-28T13:11:17.198Z,2.70
2019-04-28T13:17:20.733Z,2.25
2019-04-28T13:23:22.404Z,2.55
2019-04-28T13:29:23.875Z,2.72
2019-04-28T13:35:25.443Z,2.87
2019-04-28T13:41:26.930Z,3.08
2019-04-28T13:47:28.740Z,3.52
2019-04-28T13:53:30.462Z,3.15
2019-04-28T13:59:32.022Z,2.75
2019-04-28T14:05:44.270Z,3.00
2019-04-28T14:11:46.097Z,4.30
2019-04-28T14:17:47.578Z,3.40
2019-04-28T14:23:49.240Z,3.20
2019-04-28T14:29:50.741Z,3.40
2019-04-28T14:35:52.333Z,3.27
2019-04-28T14:41:55.358Z,3.37
2019-04-28T14:47:57.999Z,3.33
2019-04-28T14:53:59.656Z,3.12
2019-04-28T15:00:01.287Z,2.62
2019-04-28T15:12:28.147Z,2.52
2019-04-28T15:18:29.595Z,2.62
2019-04-28T15:24:31.048Z,2.67
2019-04-28T15:30:32.742Z,2.42
2019-04-28T15:36:35.003Z,2.90
2019-04-28T15:56:06.623Z,2.30
2019-04-28T16:02:11.052Z,2.20
2019-04-28T16:08:16.950Z,2.70
2019-04-28T16:14:19.335Z,2.30
2019-04-28T16:27:13.815Z,2.20
2019-04-28T16:33:18.126Z,2.02
2019-04-28T16:39:19.665Z,2.30
2019-04-28T16:45:21.339Z,1.95
2019-04-28T16:51:22.794Z,1.87
2019-04-28T16:57:31.977Z,2.12
2019-04-28T17:03:35.396Z,2.40
2019-04-28T17:09:36.924Z,2.60
2019-04-28T17:15:38.422Z,2.90
2019-04-28T17:21:40.062Z,2.50
2019-04-28T17:27:41.626Z,2.77
2019-04-28T17:33:43.537Z,2.83
2019-04-28T17:39:45.086Z,3.58
2019-04-28T17:45:46.834Z,2.80
2019-04-28T17:51:49.018Z,3.37
2019-04-28T17:57:50.551Z,2.60
2019-04-28T18:04:00.007Z,2.80
2019-04-28T18:10:03.237Z,3.30
2019-04-28T18:16:23.343Z,3.00
2019-04-28T18:22:24.960Z,3.37
2019-04-28T18:28:26.629Z,2.80
2019-04-28T18:34:46.351Z,3.15
2019-04-28T18:41:02.062Z,3.12
2019-04-28T18:47:03.733Z,2.95
2019-04-28T18:53:05.394Z,2.70
2019-04-28T18:59:07.029Z,3.05
2019-04-28T19:05:10.532Z,2.87
2019-04-28T19:11:22.785Z,3.17
2019-04-28T19:17:41.293Z,3.87
2019-04-28T19:23:43.185Z,3.30
2019-04-28T19:29:45.631Z,3.40
2019-04-28T19:35:47.072Z,3.47
2019-04-28T19:41:48.836Z,4.00
2019-04-28T19:47:50.457Z,3.10
2019-04-28T19:53:52.093Z,3.72
2019-04-28T20:00:12.085Z,3.60
2019-04-28T20:06:16.637Z,3.85
2019-04-28T20:12:19.395Z,3.65
2019-04-28T20:18:21.072Z,4.20
2019-04-28T20:24:23.651Z,4.25
2019-04-28T20:30:25.262Z,5.25
2019-04-28T20:36:28.782Z,4.03
2019-04-28T20:42:51.438Z,4.55
2019-04-28T20:48:54.021Z,3.87
2019-04-28T20:54:58.333Z,4.17
2019-04-28T21:01:00.121Z,4.35
2019-04-28T21:07:01.694Z,4.42
2019-04-28T21:13:04.789Z,4.37
2019-04-28T21:19:06.294Z,4.78
2019-04-28T21:25:11.769Z,5.80
2019-04-28T21:31:20.161Z,4.30
2019-04-28T21:37:23.484Z,4.17
2019-04-28T21:43:32.776Z,4.50
2019-04-28T21:49:36.270Z,6.12
2019-04-28T21:55:37.847Z,4.58
2019-04-28T22:01:39.397Z,4.65
2019-04-28T22:07:41.036Z,3.70
2019-04-28T22:13:42.619Z,4.28
2019-04-28T22:19:44.316Z,4.30
2019-04-28T22:25:45.776Z,4.53
2019-04-28T22:31:47.797Z,4.72
2019-04-28T22:37:49.624Z,5.30
2019-04-28T22:43:51.289Z,4.47
2019-04-28T22:49:53.318Z,4.85
2019-04-28T22:55:56.904Z,4.90
2019-04-28T23:02:03.499Z,4.53
2019-04-28T23:08:05.288Z,4.92
2019-04-28T23:14:06.937Z,4.83
2019-04-28T23:20:11.503Z,5.50
2019-04-28T23:26:13.214Z,4.97
2019-04-28T23:32:15.137Z,5.92
2019-04-28T23:38:16.747Z,5.17
2019-04-28T23:44:18.308Z,5.17
2019-04-28T23:50:21.816Z,5.50
2019-04-28T23:56:23.298Z,5.67
